New Weston, Ohio
Current Conditions -  °F | °C
As of 7:15 PM on Sunday 23 Nov 2014 (Local Time) from KVES Reporting Station
Moderate Rain Moderate Rain  
Wind Chill: 52°   Ceiling: 1700
Heat Index: 52°   Visibility: 7mi
Dew Point: 52°   Wind: 16mph
Humidity: 100%   Direction: 130°SE
Pressure: 29.44"   Gusts: 22mph
Location:  40.34°N, 84.64°W
Report Text: KVES 240015Z AUTO 13014G19KT 7SM RA SCT012 BKN017 OVC046 11/11 A2944 RMK AO2 P0005
Loading
Personal Weather Stations






























Interactive Weather Map New forecast layout! Learn more

10-Day Weather Forecast

Advertisements
Track Severe Weather on mobile